sensor_id;sensor_type;location;lat;lon;timestamp;P1;durP1;ratioP1;P2;durP2;ratioP2
27127;SDS011;14660;49.008;8.390;2022-08-20T00:00:40;2.25;;;0.90;;
27127;SDS011;14660;49.008;8.390;2022-08-20T00:03:09;1.30;;;1.20;;
27127;SDS011;14660;49.008;8.390;2022-08-20T00:05:46;1.20;;;1.10;;
27127;SDS011;14660;49.008;8.390;2022-08-20T00:08:17;2.72;;;1.23;;
27127;SDS011;14660;49.008;8.390;2022-08-20T00:10:44;1.67;;;1.05;;
27127;SDS011;14660;49.008;8.390;2022-08-20T00:13:16;2.65;;;1.60;;
27127;SDS011;14660;49.008;8.390;2022-08-20T00:15:46;1.98;;;0.73;;
27127;SDS011;14660;49.008;8.390;2022-08-20T00:18:14;2.58;;;0.98;;
27127;SDS011;14660;49.008;8.390;2022-08-20T00:20:43;2.25;;;1.00;;
27127;SDS011;14660;49.008;8.390;2022-08-20T00:23:12;2.83;;;1.23;;
27127;SDS011;14660;49.008;8.390;2022-08-20T00:25:40;2.72;;;1.38;;
27127;SDS011;14660;49.008;8.390;2022-08-20T00:28:08;3.15;;;1.10;;
27127;SDS011;14660;49.008;8.390;2022-08-20T00:30:37;3.20;;;1.13;;
27127;SDS011;14660;49.008;8.390;2022-08-20T00:33:07;2.17;;;1.20;;
27127;SDS011;14660;49.008;8.390;2022-08-20T00:35:39;2.47;;;1.42;;
27127;SDS011;14660;49.008;8.390;2022-08-20T00:38:08;4.30;;;1.20;;
27127;SDS011;14660;49.008;8.390;2022-08-20T00:40:40;3.10;;;1.45;;
27127;SDS011;14660;49.008;8.390;2022-08-20T00:44:04;1.63;;;1.15;;
27127;SDS011;14660;49.008;8.390;2022-08-20T00:46:01;3.35;;;1.20;;
27127;SDS011;14660;49.008;8.390;2022-08-20T00:48:39;2.30;;;1.20;;
27127;SDS011;14660;49.008;8.390;2022-08-20T00:54:03;2.05;;;1.50;;
27127;SDS011;14660;49.008;8.390;2022-08-20T00:56:36;2.63;;;1.35;;
27127;SDS011;14660;49.008;8.390;2022-08-20T00:59:04;1.52;;;1.23;;
27127;SDS011;14660;49.008;8.390;2022-08-20T01:01:38;1.85;;;1.40;;
27127;SDS011;14660;49.008;8.390;2022-08-20T01:04:05;3.38;;;1.33;;
27127;SDS011;14660;49.008;8.390;2022-08-20T01:06:32;1.40;;;1.30;;
27127;SDS011;14660;49.008;8.390;2022-08-20T01:08:59;1.80;;;1.45;;
27127;SDS011;14660;49.008;8.390;2022-08-20T01:11:27;2.90;;;1.55;;
27127;SDS011;14660;49.008;8.390;2022-08-20T01:14:01;1.52;;;1.40;;
27127;SDS011;14660;49.008;8.390;2022-08-20T01:16:55;2.90;;;1.58;;
27127;SDS011;14660;49.008;8.390;2022-08-20T01:19:35;1.83;;;1.50;;
27127;SDS011;14660;49.008;8.390;2022-08-20T01:22:07;3.53;;;1.50;;
27127;SDS011;14660;49.008;8.390;2022-08-20T01:24:57;2.85;;;1.52;;
27127;SDS011;14660;49.008;8.390;2022-08-20T01:27:33;2.15;;;1.40;;
27127;SDS011;14660;49.008;8.390;2022-08-20T01:30:02;3.33;;;1.80;;
27127;SDS011;14660;49.008;8.390;2022-08-20T01:32:29;2.25;;;1.63;;
27127;SDS011;14660;49.008;8.390;2022-08-20T01:34:56;4.65;;;1.60;;
27127;SDS011;14660;49.008;8.390;2022-08-20T01:37:22;3.60;;;1.63;;
27127;SDS011;14660;49.008;8.390;2022-08-20T01:39:49;2.97;;;1.88;;
27127;SDS011;14660;49.008;8.390;2022-08-20T01:45:04;3.05;;;1.88;;
27127;SDS011;14660;49.008;8.390;2022-08-20T01:47:32;2.30;;;2.00;;
27127;SDS011;14660;49.008;8.390;2022-08-20T01:50:01;3.03;;;1.50;;
27127;SDS011;14660;49.008;8.390;2022-08-20T01:55:14;2.53;;;1.90;;
27127;SDS011;14660;49.008;8.390;2022-08-20T01:57:42;2.10;;;1.77;;
27127;SDS011;14660;49.008;8.390;2022-08-20T02:00:11;2.17;;;1.98;;
27127;SDS011;14660;49.008;8.390;2022-08-20T02:02:41;2.03;;;1.80;;
27127;SDS011;14660;49.008;8.390;2022-08-20T02:05:08;2.08;;;1.90;;
27127;SDS011;14660;49.008;8.390;2022-08-20T02:07:36;3.95;;;1.95;;
27127;SDS011;14660;49.008;8.390;2022-08-20T02:10:08;3.95;;;2.60;;
27127;SDS011;14660;49.008;8.390;2022-08-20T02:15:06;3.22;;;2.10;;
27127;SDS011;14660;49.008;8.390;2022-08-20T02:17:35;2.00;;;1.58;;
27127;SDS011;14660;49.008;8.390;2022-08-20T02:20:05;2.30;;;2.10;;
27127;SDS011;14660;49.008;8.390;2022-08-20T02:22:41;3.42;;;1.85;;
27127;SDS011;14660;49.008;8.390;2022-08-20T02:25:14;2.75;;;1.90;;
27127;SDS011;14660;49.008;8.390;2022-08-20T02:27:43;2.88;;;2.10;;
27127;SDS011;14660;49.008;8.390;2022-08-20T02:30:17;3.25;;;2.20;;
27127;SDS011;14660;49.008;8.390;2022-08-20T02:32:55;3.17;;;2.10;;
27127;SDS011;14660;49.008;8.390;2022-08-20T02:35:23;5.90;;;2.53;;
27127;SDS011;14660;49.008;8.390;2022-08-20T02:37:51;4.75;;;2.60;;
27127;SDS011;14660;49.008;8.390;2022-08-20T02:40:20;6.07;;;2.92;;
27127;SDS011;14660;49.008;8.390;2022-08-20T02:42:48;2.88;;;2.22;;
27127;SDS011;14660;49.008;8.390;2022-08-20T02:45:15;3.20;;;2.35;;
27127;SDS011;14660;49.008;8.390;2022-08-20T02:47:44;5.28;;;2.20;;
27127;SDS011;14660;49.008;8.390;2022-08-20T02:50:14;3.03;;;2.35;;
27127;SDS011;14660;49.008;8.390;2022-08-20T02:52:43;2.20;;;2.00;;
27127;SDS011;14660;49.008;8.390;2022-08-20T02:55:11;3.60;;;2.55;;
27127;SDS011;14660;49.008;8.390;2022-08-20T02:57:38;3.20;;;2.53;;
27127;SDS011;14660;49.008;8.390;2022-08-20T03:00:10;3.03;;;2.47;;
27127;SDS011;14660;49.008;8.390;2022-08-20T03:02:39;3.78;;;2.53;;
27127;SDS011;14660;49.008;8.390;2022-08-20T03:05:07;3.35;;;2.83;;
27127;SDS011;14660;49.008;8.390;2022-08-20T03:07:42;3.60;;;2.50;;
27127;SDS011;14660;49.008;8.390;2022-08-20T03:10:13;4.00;;;2.85;;
27127;SDS011;14660;49.008;8.390;2022-08-20T03:12:41;3.97;;;2.92;;
27127;SDS011;14660;49.008;8.390;2022-08-20T03:15:09;3.05;;;2.40;;
27127;SDS011;14660;49.008;8.390;2022-08-20T03:17:36;6.45;;;2.75;;
27127;SDS011;14660;49.008;8.390;2022-08-20T03:20:06;3.92;;;3.10;;
27127;SDS011;14660;49.008;8.390;2022-08-20T03:22:34;4.53;;;3.00;;
27127;SDS011;14660;49.008;8.390;2022-08-20T03:25:02;4.80;;;3.53;;
27127;SDS011;14660;49.008;8.390;2022-08-20T03:27:29;5.03;;;3.35;;
27127;SDS011;14660;49.008;8.390;2022-08-20T03:29:56;4.72;;;3.30;;
27127;SDS011;14660;49.008;8.390;2022-08-20T03:32:22;3.42;;;2.97;;
27127;SDS011;14660;49.008;8.390;2022-08-20T03:34:49;3.55;;;2.88;;
27127;SDS011;14660;49.008;8.390;2022-08-20T03:37:16;6.78;;;3.17;;
27127;SDS011;14660;49.008;8.390;2022-08-20T03:39:43;4.15;;;3.60;;
27127;SDS011;14660;49.008;8.390;2022-08-20T03:42:10;3.72;;;2.70;;
27127;SDS011;14660;49.008;8.390;2022-08-20T03:44:36;4.30;;;3.03;;
27127;SDS011;14660;49.008;8.390;2022-08-20T03:47:03;4.35;;;3.58;;
27127;SDS011;14660;49.008;8.390;2022-08-20T03:49:34;3.60;;;3.25;;
27127;SDS011;14660;49.008;8.390;2022-08-20T03:52:02;6.30;;;3.08;;
27127;SDS011;14660;49.008;8.390;2022-08-20T03:54:30;4.90;;;3.30;;
27127;SDS011;14660;49.008;8.390;2022-08-20T03:56:57;4.30;;;3.20;;
27127;SDS011;14660;49.008;8.390;2022-08-20T03:59:25;4.13;;;3.58;;
27127;SDS011;14660;49.008;8.390;2022-08-20T04:01:52;4.15;;;3.75;;
27127;SDS011;14660;49.008;8.390;2022-08-20T04:04:19;6.65;;;3.60;;
27127;SDS011;14660;49.008;8.390;2022-08-20T04:06:47;4.15;;;3.72;;
27127;SDS011;14660;49.008;8.390;2022-08-20T04:09:15;5.65;;;3.92;;
27127;SDS011;14660;49.008;8.390;2022-08-20T04:11:42;4.43;;;4.03;;
27127;SDS011;14660;49.008;8.390;2022-08-20T04:14:09;5.10;;;3.55;;
27127;SDS011;14660;49.008;8.390;2022-08-20T04:16:39;4.43;;;3.60;;
27127;SDS011;14660;49.008;8.390;2022-08-20T04:19:06;4.45;;;3.63;;
27127;SDS011;14660;49.008;8.390;2022-08-20T04:21:34;5.07;;;3.95;;
27127;SDS011;14660;49.008;8.390;2022-08-20T04:24:02;6.35;;;4.18;;
27127;SDS011;14660;49.008;8.390;2022-08-20T04:26:30;4.82;;;4.00;;
27127;SDS011;14660;49.008;8.390;2022-08-20T04:28:57;5.65;;;4.18;;
27127;SDS011;14660;49.008;8.390;2022-08-20T04:31:24;5.03;;;3.85;;
27127;SDS011;14660;49.008;8.390;2022-08-20T04:34:04;4.97;;;4.22;;
27127;SDS011;14660;49.008;8.390;2022-08-20T04:36:34;5.40;;;3.83;;
27127;SDS011;14660;49.008;8.390;2022-08-20T04:39:01;4.95;;;4.10;;
27127;SDS011;14660;49.008;8.390;2022-08-20T04:41:28;4.45;;;3.92;;
27127;SDS011;14660;49.008;8.390;2022-08-20T04:43:55;6.13;;;4.40;;
27127;SDS011;14660;49.008;8.390;2022-08-20T04:46:23;4.63;;;4.18;;
27127;SDS011;14660;49.008;8.390;2022-08-20T04:48:53;5.78;;;4.63;;
27127;SDS011;14660;49.008;8.390;2022-08-20T04:51:21;5.28;;;4.78;;
27127;SDS011;14660;49.008;8.390;2022-08-20T04:53:48;7.32;;;5.50;;
27127;SDS011;14660;49.008;8.390;2022-08-20T04:56:16;5.50;;;4.45;;
27127;SDS011;14660;49.008;8.390;2022-08-20T04:58:44;6.53;;;4.82;;
27127;SDS011;14660;49.008;8.390;2022-08-20T05:01:29;6.72;;;4.03;;
27127;SDS011;14660;49.008;8.390;2022-08-20T05:03:57;5.28;;;4.22;;
27127;SDS011;14660;49.008;8.390;2022-08-20T05:06:27;5.55;;;4.40;;
27127;SDS011;14660;49.008;8.390;2022-08-20T05:08:56;4.95;;;3.78;;
27127;SDS011;14660;49.008;8.390;2022-08-20T05:11:24;5.38;;;4.30;;
27127;SDS011;14660;49.008;8.390;2022-08-20T05:13:51;6.72;;;4.45;;
27127;SDS011;14660;49.008;8.390;2022-08-20T05:16:18;6.47;;;3.78;;
27127;SDS011;14660;49.008;8.390;2022-08-20T05:18:46;5.07;;;4.22;;
27127;SDS011;14660;49.008;8.390;2022-08-20T05:21:13;4.80;;;4.30;;
27127;SDS011;14660;49.008;8.390;2022-08-20T05:23:40;6.55;;;4.32;;
27127;SDS011;14660;49.008;8.390;2022-08-20T05:26:10;4.68;;;4.07;;
27127;SDS011;14660;49.008;8.390;2022-08-20T05:28:38;6.32;;;4.40;;
27127;SDS011;14660;49.008;8.390;2022-08-20T05:31:05;8.00;;;4.95;;
27127;SDS011;14660;49.008;8.390;2022-08-20T05:33:35;7.25;;;4.53;;
27127;SDS011;14660;49.008;8.390;2022-08-20T05:36:05;4.88;;;4.38;;
27127;SDS011;14660;49.008;8.390;2022-08-20T05:38:33;5.43;;;4.65;;
27127;SDS011;14660;49.008;8.390;2022-08-20T05:41:02;6.68;;;4.43;;
27127;SDS011;14660;49.008;8.390;2022-08-20T05:43:30;6.55;;;3.97;;
27127;SDS011;14660;49.008;8.390;2022-08-20T05:45:59;5.30;;;4.07;;
27127;SDS011;14660;49.008;8.390;2022-08-20T05:48:26;5.65;;;4.00;;
27127;SDS011;14660;49.008;8.390;2022-08-20T05:50:53;6.38;;;4.00;;
27127;SDS011;14660;49.008;8.390;2022-08-20T05:53:21;5.20;;;3.80;;
27127;SDS011;14660;49.008;8.390;2022-08-20T05:55:49;6.22;;;4.07;;
27127;SDS011;14660;49.008;8.390;2022-08-20T05:58:19;4.68;;;4.03;;
27127;SDS011;14660;49.008;8.390;2022-08-20T06:00:51;7.47;;;3.67;;
27127;SDS011;14660;49.008;8.390;2022-08-20T06:03:18;8.75;;;4.80;;
27127;SDS011;14660;49.008;8.390;2022-08-20T06:06:05;7.15;;;4.07;;
27127;SDS011;14660;49.008;8.390;2022-08-20T06:08:33;4.75;;;3.78;;
27127;SDS011;14660;49.008;8.390;2022-08-20T06:11:00;5.22;;;3.88;;
27127;SDS011;14660;49.008;8.390;2022-08-20T06:13:27;5.63;;;4.00;;
27127;SDS011;14660;49.008;8.390;2022-08-20T06:15:55;6.18;;;4.18;;
27127;SDS011;14660;49.008;8.390;2022-08-20T06:18:22;4.47;;;3.90;;
27127;SDS011;14660;49.008;8.390;2022-08-20T06:20:49;6.05;;;4.35;;
27127;SDS011;14660;49.008;8.390;2022-08-20T06:23:17;6.20;;;3.47;;
27127;SDS011;14660;49.008;8.390;2022-08-20T06:25:44;6.28;;;4.35;;
27127;SDS011;14660;49.008;8.390;2022-08-20T06:28:12;9.90;;;4.10;;
27127;SDS011;14660;49.008;8.390;2022-08-20T06:30:39;4.65;;;4.07;;
27127;SDS011;14660;49.008;8.390;2022-08-20T06:33:06;5.72;;;3.80;;
27127;SDS011;14660;49.008;8.390;2022-08-20T06:35:33;5.22;;;4.60;;
27127;SDS011;14660;49.008;8.390;2022-08-20T06:37:59;5.97;;;3.90;;
27127;SDS011;14660;49.008;8.390;2022-08-20T06:40:27;5.25;;;4.05;;
27127;SDS011;14660;49.008;8.390;2022-08-20T06:42:55;6.03;;;4.10;;
27127;SDS011;14660;49.008;8.390;2022-08-20T06:45:26;6.43;;;4.20;;
27127;SDS011;14660;49.008;8.390;2022-08-20T06:47:58;5.18;;;4.20;;
27127;SDS011;14660;49.008;8.390;2022-08-20T06:50:28;5.25;;;3.65;;
27127;SDS011;14660;49.008;8.390;2022-08-20T06:52:57;4.28;;;3.72;;
27127;SDS011;14660;49.008;8.390;2022-08-20T06:55:25;4.95;;;3.97;;
27127;SDS011;14660;49.008;8.390;2022-08-20T06:57:56;5.05;;;4.00;;
27127;SDS011;14660;49.008;8.390;2022-08-20T07:00:25;5.40;;;3.73;;
27127;SDS011;14660;49.008;8.390;2022-08-20T07:02:52;5.18;;;4.15;;
27127;SDS011;14660;49.008;8.390;2022-08-20T07:05:19;4.30;;;3.33;;
27127;SDS011;14660;49.008;8.390;2022-08-20T07:07:49;4.13;;;3.58;;
27127;SDS011;14660;49.008;8.390;2022-08-20T07:10:16;4.90;;;4.15;;
27127;SDS011;14660;49.008;8.390;2022-08-20T07:12:45;5.88;;;3.55;;
27127;SDS011;14660;49.008;8.390;2022-08-20T07:15:12;6.35;;;3.50;;
27127;SDS011;14660;49.008;8.390;2022-08-20T07:17:40;4.45;;;3.38;;
27127;SDS011;14660;49.008;8.390;2022-08-20T07:20:11;5.30;;;3.35;;
27127;SDS011;14660;49.008;8.390;2022-08-20T07:22:40;3.92;;;2.95;;
27127;SDS011;14660;49.008;8.390;2022-08-20T07:25:09;3.50;;;3.20;;
27127;SDS011;14660;49.008;8.390;2022-08-20T07:27:38;5.45;;;2.72;;
27127;SDS011;14660;49.008;8.390;2022-08-20T07:30:06;6.30;;;2.47;;
27127;SDS011;14660;49.008;8.390;2022-08-20T07:32:54;3.60;;;2.80;;
27127;SDS011;14660;49.008;8.390;2022-08-20T07:35:22;7.70;;;2.92;;
27127;SDS011;14660;49.008;8.390;2022-08-20T07:37:50;3.65;;;2.70;;
27127;SDS011;14660;49.008;8.390;2022-08-20T07:40:22;4.15;;;2.63;;
27127;SDS011;14660;49.008;8.390;2022-08-20T07:42:53;4.75;;;3.45;;
27127;SDS011;14660;49.008;8.390;2022-08-20T07:45:21;2.45;;;2.17;;
27127;SDS011;14660;49.008;8.390;2022-08-20T07:47:48;2.83;;;2.63;;
27127;SDS011;14660;49.008;8.390;2022-08-20T07:50:19;3.58;;;2.33;;
27127;SDS011;14660;49.008;8.390;2022-08-20T07:52:50;5.53;;;3.03;;
27127;SDS011;14660;49.008;8.390;2022-08-20T07:55:18;3.05;;;2.38;;
27127;SDS011;14660;49.008;8.390;2022-08-20T07:57:47;2.42;;;2.05;;
27127;SDS011;14660;49.008;8.390;2022-08-20T08:00:16;5.13;;;2.85;;
27127;SDS011;14660;49.008;8.390;2022-08-20T08:02:45;2.47;;;2.10;;
27127;SDS011;14660;49.008;8.390;2022-08-20T08:05:13;4.93;;;2.33;;
27127;SDS011;14660;49.008;8.390;2022-08-20T08:07:41;4.32;;;2.42;;
27127;SDS011;14660;49.008;8.390;2022-08-20T08:10:09;4.55;;;2.33;;
27127;SDS011;14660;49.008;8.390;2022-08-20T08:12:46;3.67;;;2.22;;
27127;SDS011;14660;49.008;8.390;2022-08-20T08:15:17;4.25;;;2.22;;
27127;SDS011;14660;49.008;8.390;2022-08-20T08:17:47;2.97;;;2.20;;
27127;SDS011;14660;49.008;8.390;2022-08-20T08:20:18;3.13;;;2.60;;
27127;SDS011;14660;49.008;8.390;2022-08-20T08:22:46;3.72;;;2.20;;
27127;SDS011;14660;49.008;8.390;2022-08-20T08:25:14;3.83;;;2.05;;
27127;SDS011;14660;49.008;8.390;2022-08-20T08:27:42;3.97;;;2.58;;
27127;SDS011;14660;49.008;8.390;2022-08-20T08:30:12;4.10;;;2.33;;
27127;SDS011;14660;49.008;8.390;2022-08-20T08:32:39;2.67;;;2.15;;
27127;SDS011;14660;49.008;8.390;2022-08-20T08:35:26;3.58;;;1.88;;
27127;SDS011;14660;49.008;8.390;2022-08-20T08:37:53;3.80;;;2.20;;
27127;SDS011;14660;49.008;8.390;2022-08-20T08:40:23;4.95;;;2.17;;
27127;SDS011;14660;49.008;8.390;2022-08-20T08:42:51;2.83;;;2.28;;
27127;SDS011;14660;49.008;8.390;2022-08-20T08:45:24;3.85;;;2.90;;
27127;SDS011;14660;49.008;8.390;2022-08-20T08:47:56;4.10;;;2.35;;
27127;SDS011;14660;49.008;8.390;2022-08-20T08:50:26;3.28;;;2.53;;
27127;SDS011;14660;49.008;8.390;2022-08-20T08:52:57;4.43;;;2.80;;
27127;SDS011;14660;49.008;8.390;2022-08-20T08:55:28;3.45;;;2.33;;
27127;SDS011;14660;49.008;8.390;2022-08-20T08:57:58;2.95;;;2.10;;
27127;SDS011;14660;49.008;8.390;2022-08-20T09:00:27;4.93;;;2.50;;
27127;SDS011;14660;49.008;8.390;2022-08-20T09:02:59;2.63;;;2.30;;
27127;SDS011;14660;49.008;8.390;2022-08-20T09:08:31;3.58;;;2.15;;
27127;SDS011;14660;49.008;8.390;2022-08-20T09:11:19;7.65;;;2.60;;
27127;SDS011;14660;49.008;8.390;2022-08-20T09:13:47;4.30;;;2.47;;
27127;SDS011;14660;49.008;8.390;2022-08-20T09:16:15;4.30;;;2.83;;
27127;SDS011;14660;49.008;8.390;2022-08-20T09:18:41;2.97;;;2.40;;
27127;SDS011;14660;49.008;8.390;2022-08-20T09:21:08;4.05;;;2.13;;
27127;SDS011;14660;49.008;8.390;2022-08-20T09:23:36;2.88;;;1.83;;
27127;SDS011;14660;49.008;8.390;2022-08-20T09:26:03;4.03;;;2.50;;
27127;SDS011;14660;49.008;8.390;2022-08-20T09:28:30;4.47;;;2.10;;
27127;SDS011;14660;49.008;8.390;2022-08-20T09:30:57;4.20;;;2.25;;
27127;SDS011;14660;49.008;8.390;2022-08-20T09:33:25;2.47;;;1.83;;
27127;SDS011;14660;49.008;8.390;2022-08-20T09:35:52;2.83;;;2.00;;
27127;SDS011;14660;49.008;8.390;2022-08-20T09:38:19;1.90;;;1.70;;
27127;SDS011;14660;49.008;8.390;2022-08-20T09:40:46;2.58;;;1.60;;
27127;SDS011;14660;49.008;8.390;2022-08-20T09:43:13;2.05;;;1.50;;
27127;SDS011;14660;49.008;8.390;2022-08-20T09:45:40;2.72;;;1.73;;
27127;SDS011;14660;49.008;8.390;2022-08-20T09:48:07;2.33;;;1.67;;
27127;SDS011;14660;49.008;8.390;2022-08-20T09:50:34;1.27;;;1.17;;
27127;SDS011;14660;49.008;8.390;2022-08-20T09:53:03;1.95;;;1.52;;
27127;SDS011;14660;49.008;8.390;2022-08-20T10:01:11;1.98;;;1.40;;
27127;SDS011;14660;49.008;8.390;2022-08-20T10:03:40;2.95;;;1.15;;
27127;SDS011;14660;49.008;8.390;2022-08-20T10:06:08;1.85;;;1.05;;
27127;SDS011;14660;49.008;8.390;2022-08-20T10:08:37;2.95;;;0.80;;
27127;SDS011;14660;49.008;8.390;2022-08-20T10:11:04;1.02;;;0.90;;
27127;SDS011;14660;49.008;8.390;2022-08-20T10:13:31;1.48;;;1.20;;
27127;SDS011;14660;49.008;8.390;2022-08-20T10:15:57;1.65;;;1.17;;
27127;SDS011;14660;49.008;8.390;2022-08-20T10:18:24;0.90;;;0.80;;
27127;SDS011;14660;49.008;8.390;2022-08-20T10:20:51;1.58;;;1.20;;
27127;SDS011;14660;49.008;8.390;2022-08-20T10:23:18;1.98;;;1.02;;
27127;SDS011;14660;49.008;8.390;2022-08-20T10:25:45;1.55;;;0.95;;
27127;SDS011;14660;49.008;8.390;2022-08-20T10:28:12;1.17;;;0.90;;
27127;SDS011;14660;49.008;8.390;2022-08-20T10:30:40;1.40;;;1.13;;
27127;SDS011;14660;49.008;8.390;2022-08-20T10:33:07;1.33;;;1.23;;
27127;SDS011;14660;49.008;8.390;2022-08-20T10:35:32;0.80;;;0.80;;
27127;SDS011;14660;49.008;8.390;2022-08-20T10:38:00;2.55;;;0.95;;
27127;SDS011;14660;49.008;8.390;2022-08-20T10:40:27;0.75;;;0.70;;
27127;SDS011;14660;49.008;8.390;2022-08-20T10:42:54;1.23;;;0.93;;
27127;SDS011;14660;49.008;8.390;2022-08-20T10:45:21;1.85;;;1.08;;
27127;SDS011;14660;49.008;8.390;2022-08-20T10:47:50;1.15;;;0.70;;
27127;SDS011;14660;49.008;8.390;2022-08-20T10:50:17;1.85;;;0.90;;
27127;SDS011;14660;49.008;8.390;2022-08-20T10:52:45;1.50;;;0.95;;
27127;SDS011;14660;49.008;8.390;2022-08-20T10:55:12;0.98;;;0.95;;
27127;SDS011;14660;49.008;8.390;2022-08-20T10:57:39;1.17;;;1.02;;
27127;SDS011;14660;49.008;8.390;2022-08-20T11:00:07;1.20;;;1.10;;
27127;SDS011;14660;49.008;8.390;2022-08-20T11:02:36;1.27;;;1.17;;
27127;SDS011;14660;49.008;8.390;2022-08-20T11:05:03;1.00;;;0.93;;
27127;SDS011;14660;49.008;8.390;2022-08-20T11:07:34;2.08;;;0.90;;
27127;SDS011;14660;49.008;8.390;2022-08-20T11:10:04;1.30;;;1.10;;
27127;SDS011;14660;49.008;8.390;2022-08-20T11:12:33;1.23;;;1.10;;
27127;SDS011;14660;49.008;8.390;2022-08-20T11:14:59;1.23;;;0.98;;
27127;SDS011;14660;49.008;8.390;2022-08-20T11:17:30;1.60;;;1.50;;
27127;SDS011;14660;49.008;8.390;2022-08-20T11:19:59;1.92;;;1.10;;
27127;SDS011;14660;49.008;8.390;2022-08-20T11:22:26;2.00;;;1.10;;
27127;SDS011;14660;49.008;8.390;2022-08-20T11:24:53;1.60;;;1.00;;
27127;SDS011;14660;49.008;8.390;2022-08-20T11:27:28;1.27;;;1.15;;
27127;SDS011;14660;49.008;8.390;2022-08-20T11:29:58;1.35;;;1.00;;
27127;SDS011;14660;49.008;8.390;2022-08-20T11:32:24;2.03;;;1.20;;
27127;SDS011;14660;49.008;8.390;2022-08-20T11:34:51;2.05;;;0.90;;
27127;SDS011;14660;49.008;8.390;2022-08-20T11:37:19;1.17;;;1.00;;
27127;SDS011;14660;49.008;8.390;2022-08-20T11:39:48;1.35;;;0.90;;
27127;SDS011;14660;49.008;8.390;2022-08-20T11:42:15;1.92;;;1.20;;
27127;SDS011;14660;49.008;8.390;2022-08-20T11:44:42;1.13;;;0.68;;
27127;SDS011;14660;49.008;8.390;2022-08-20T11:47:09;2.17;;;1.10;;
27127;SDS011;14660;49.008;8.390;2022-08-20T11:50:00;2.75;;;0.90;;
27127;SDS011;14660;49.008;8.390;2022-08-20T11:52:32;1.00;;;0.90;;
27127;SDS011;14660;49.008;8.390;2022-08-20T11:55:03;3.67;;;2.42;;
27127;SDS011;14660;49.008;8.390;2022-08-20T11:57:31;1.08;;;0.70;;
27127;SDS011;14660;49.008;8.390;2022-08-20T12:00:00;2.05;;;0.77;;
27127;SDS011;14660;49.008;8.390;2022-08-20T12:02:30;0.38;;;0.38;;
27127;SDS011;14660;49.008;8.390;2022-08-20T12:04:57;0.73;;;0.50;;
27127;SDS011;14660;49.008;8.390;2022-08-20T12:07:24;0.93;;;0.40;;
27127;SDS011;14660;49.008;8.390;2022-08-20T12:09:52;1.10;;;0.57;;
27127;SDS011;14660;49.008;8.390;2022-08-20T12:12:20;1.63;;;0.82;;
27127;SDS011;14660;49.008;8.390;2022-08-20T12:14:49;1.95;;;0.77;;
27127;SDS011;14660;49.008;8.390;2022-08-20T12:17:19;0.80;;;0.43;;
27127;SDS011;14660;49.008;8.390;2022-08-20T12:19:49;0.85;;;0.60;;
27127;SDS011;14660;49.008;8.390;2022-08-20T12:22:17;0.70;;;0.50;;
27127;SDS011;14660;49.008;8.390;2022-08-20T12:24:44;0.70;;;0.60;;
27127;SDS011;14660;49.008;8.390;2022-08-20T12:27:19;0.52;;;0.40;;
27127;SDS011;14660;49.008;8.390;2022-08-20T12:29:49;0.73;;;0.60;;
27127;SDS011;14660;49.008;8.390;2022-08-20T12:32:17;0.80;;;0.45;;
27127;SDS011;14660;49.008;8.390;2022-08-20T12:34:45;0.65;;;0.55;;
27127;SDS011;14660;49.008;8.390;2022-08-20T12:37:19;0.70;;;0.53;;
27127;SDS011;14660;49.008;8.390;2022-08-20T12:39:51;0.50;;;0.40;;
27127;SDS011;14660;49.008;8.390;2022-08-20T12:42:20;0.45;;;0.38;;
27127;SDS011;14660;49.008;8.390;2022-08-20T12:44:47;2.58;;;0.63;;
27127;SDS011;14660;49.008;8.390;2022-08-20T12:50:05;0.38;;;0.20;;
27127;SDS011;14660;49.008;8.390;2022-08-20T12:52:35;0.50;;;0.50;;
27127;SDS011;14660;49.008;8.390;2022-08-20T12:55:04;0.68;;;0.55;;
27127;SDS011;14660;49.008;8.390;2022-08-20T13:03:10;1.83;;;0.57;;
27127;SDS011;14660;49.008;8.390;2022-08-20T13:05:38;1.95;;;0.50;;
27127;SDS011;14660;49.008;8.390;2022-08-20T13:08:08;0.60;;;0.30;;
27127;SDS011;14660;49.008;8.390;2022-08-20T13:10:38;0.40;;;0.30;;
27127;SDS011;14660;49.008;8.390;2022-08-20T13:13:10;0.77;;;0.38;;
27127;SDS011;14660;49.008;8.390;2022-08-20T13:15:41;0.60;;;0.50;;
27127;SDS011;14660;49.008;8.390;2022-08-20T13:18:07;1.95;;;0.70;;
27127;SDS011;14660;49.008;8.390;2022-08-20T13:20:36;1.10;;;0.60;;
27127;SDS011;14660;49.008;8.390;2022-08-20T13:23:04;7.20;;;1.50;;
27127;SDS011;14660;49.008;8.390;2022-08-20T13:25:32;2.95;;;1.30;;
27127;SDS011;14660;49.008;8.390;2022-08-20T13:27:59;0.50;;;0.45;;
27127;SDS011;14660;49.008;8.390;2022-08-20T13:30:29;4.65;;;0.82;;
27127;SDS011;14660;49.008;8.390;2022-08-20T13:32:57;0.95;;;0.32;;
27127;SDS011;14660;49.008;8.390;2022-08-20T13:35:25;2.25;;;0.47;;
27127;SDS011;14660;49.008;8.390;2022-08-20T13:37:52;1.50;;;0.52;;
27127;SDS011;14660;49.008;8.390;2022-08-20T13:40:19;0.50;;;0.30;;
27127;SDS011;14660;49.008;8.390;2022-08-20T13:42:46;0.80;;;0.57;;
27127;SDS011;14660;49.008;8.390;2022-08-20T13:45:12;4.07;;;0.70;;
27127;SDS011;14660;49.008;8.390;2022-08-20T13:47:40;1.33;;;0.98;;
27127;SDS011;14660;49.008;8.390;2022-08-20T13:52:51;1.15;;;0.68;;
27127;SDS011;14660;49.008;8.390;2022-08-20T13:55:20;3.22;;;0.90;;
27127;SDS011;14660;49.008;8.390;2022-08-20T13:57:48;2.10;;;1.15;;
27127;SDS011;14660;49.008;8.390;2022-08-20T14:00:18;0.80;;;0.73;;
27127;SDS011;14660;49.008;8.390;2022-08-20T14:02:52;1.77;;;0.60;;
27127;SDS011;14660;49.008;8.390;2022-08-20T14:05:18;1.17;;;0.60;;
27127;SDS011;14660;49.008;8.390;2022-08-20T14:07:46;1.05;;;0.60;;
27127;SDS011;14660;49.008;8.390;2022-08-20T14:10:19;1.98;;;1.70;;
27127;SDS011;14660;49.008;8.390;2022-08-20T14:12:49;1.98;;;0.70;;
27127;SDS011;14660;49.008;8.390;2022-08-20T14:15:16;2.15;;;0.88;;
27127;SDS011;14660;49.008;8.390;2022-08-20T14:17:48;3.03;;;1.10;;
27127;SDS011;14660;49.008;8.390;2022-08-20T14:20:20;1.63;;;0.70;;
27127;SDS011;14660;49.008;8.390;2022-08-20T14:22:50;1.73;;;1.02;;
27127;SDS011;14660;49.008;8.390;2022-08-20T14:25:17;1.33;;;0.73;;
27127;SDS011;14660;49.008;8.390;2022-08-20T14:27:46;1.60;;;0.90;;
27127;SDS011;14660;49.008;8.390;2022-08-20T14:30:15;1.85;;;1.05;;
27127;SDS011;14660;49.008;8.390;2022-08-20T14:32:44;2.28;;;1.20;;
27127;SDS011;14660;49.008;8.390;2022-08-20T14:35:11;4.18;;;0.85;;
27127;SDS011;14660;49.008;8.390;2022-08-20T14:37:42;3.15;;;1.13;;
27127;SDS011;14660;49.008;8.390;2022-08-20T14:40:13;3.85;;;1.30;;
27127;SDS011;14660;49.008;8.390;2022-08-20T14:42:42;1.52;;;1.00;;
27127;SDS011;14660;49.008;8.390;2022-08-20T14:45:10;2.85;;;1.02;;
27127;SDS011;14660;49.008;8.390;2022-08-20T14:47:39;1.83;;;0.80;;
27127;SDS011;14660;49.008;8.390;2022-08-20T14:50:09;3.50;;;1.25;;
27127;SDS011;14660;49.008;8.390;2022-08-20T14:52:39;2.55;;;1.20;;
27127;SDS011;14660;49.008;8.390;2022-08-20T14:55:07;2.25;;;0.75;;
27127;SDS011;14660;49.008;8.390;2022-08-20T14:57:36;2.00;;;1.13;;
27127;SDS011;14660;49.008;8.390;2022-08-20T15:00:06;1.65;;;1.23;;
27127;SDS011;14660;49.008;8.390;2022-08-20T15:02:35;3.42;;;1.30;;
27127;SDS011;14660;49.008;8.390;2022-08-20T15:05:03;2.45;;;1.00;;
27127;SDS011;14660;49.008;8.390;2022-08-20T15:07:34;2.72;;;1.50;;
27127;SDS011;14660;49.008;8.390;2022-08-20T15:10:08;4.32;;;1.40;;
27127;SDS011;14660;49.008;8.390;2022-08-20T15:12:38;2.03;;;1.00;;
27127;SDS011;14660;49.008;8.390;2022-08-20T15:15:06;1.55;;;1.10;;
27127;SDS011;14660;49.008;8.390;2022-08-20T15:17:35;4.35;;;1.17;;
27127;SDS011;14660;49.008;8.390;2022-08-20T15:20:03;1.92;;;1.30;;
27127;SDS011;14660;49.008;8.390;2022-08-20T15:22:37;2.67;;;1.35;;
27127;SDS011;14660;49.008;8.390;2022-08-20T15:25:09;1.42;;;1.05;;
27127;SDS011;14660;49.008;8.390;2022-08-20T15:27:39;2.15;;;1.27;;
27127;SDS011;14660;49.008;8.390;2022-08-20T15:30:17;5.75;;;1.52;;